Dominica — CQNQ — position and weather

sailwx.info

Track history (hours):
 
Tides and Currents Weather Stations Pressure Air Temp Water Temp Dewpoint Dewpoint Depression Visibility Wind Speed Wind Dir Waves Ship Positions

Dominica

Last reported at 2018-Jul-08 10:03 UTC. Time now 2018-Jul-16 22:15 UTC.
Position N 40°18' W 009°11'.
Warning: this ship's position is 8 days out of date.

Length 128 m; draft 5.9 m.

Type: Cargo ship. MMSI: 225803960.

Date/timePositionNaut miles runAvg speedWind from/ knotsBaromVisibWave heightAir tempDewpointWater temp
2018-Jul-08 10:03N 40°18' W 009°11'113.3
2018-Jul-08 10:00N 40°17' W 009°12'713.4
2018-Jul-08 09:30N 40°12' W 009°17'713.4
2018-Jul-08 09:00N 40°07' W 009°23'713.3
2018-Jul-08 08:30N 40°02' W 009°28'713.0
2018-Jul-08 07:59N 39°57' W 009°34'813.1
2018-Jul-08 07:22N 39°50' W 009°41'513.0
2018-Jul-08 07:00N 39°47' W 009°45'812.9
2018-Jul-08 06:25N 39°41' W 009°51'612.8
2018-Jul-08 05:55N 39°36' W 009°57'512.8
2018-Jul-08 05:30N 39°32' W 010°01'712.5
2018-Jul-08 04:59N 39°27' W 010°06'712.6
2018-Jul-08 04:27N 39°22' W 010°12'512.1
2018-Jul-08 04:00N 39°17' W 010°16'612.4
2018-Jul-08 03:29N 39°11' W 010°19'612.5
2018-Jul-08 03:00N 39°06' W 010°22'612.5
2018-Jul-08 02:30N 39°00' W 010°25'612.4
2018-Jul-08 02:00N 38°54' W 010°28'612.3
2018-Jul-08 01:30N 38°49' W 010°31'611.9
2018-Jul-08 00:59N 38°43' W 010°34'712.2
2018-Jul-08 00:23N 38°36' W 010°38'612.4
2018-Jul-07 23:54N 38°31' W 010°41'512.3
2018-Jul-07 23:30N 38°26' W 010°43'612.4
2018-Jul-07 23:00N 38°21' W 010°46'812.3
2018-Jul-07 22:21N 38°13' W 010°50'412.1
2018-Jul-07 22:00N 38°09' W 010°52'612.2
2018-Jul-07 21:31N 38°04' W 010°55'612.4
2018-Jul-07 21:00N 37°58' W 010°58'1912.5
2018-Jul-07 19:28N 37°40' W 011°08'612.8
2018-Jul-07 19:00N 37°35' W 011°11'712.8
2018-Jul-07 18:29N 37°29' W 011°14'47012.3
2018-Jul-06 04:15N 30°08' W 014°32'910.8
2018-Jul-06 03:22N 29°59' W 014°36'410.7
2018-Jul-06 03:00N 29°56' W 014°37'610.8
2018-Jul-06 02:26N 29°50' W 014°40'511.2
2018-Jul-06 02:00N 29°45' W 014°42'611.1
2018-Jul-06 01:30N 29°40' W 014°44'511.0
2018-Jul-06 01:00N 29°35' W 014°46'510.9
2018-Jul-06 00:30N 29°30' W 014°48'610.7
2018-Jul-05 23:59N 29°25' W 014°50'510.7
2018-Jul-05 23:30N 29°20' W 014°53'510.8
2018-Jul-05 23:00N 29°15' W 014°55'710.6
2018-Jul-05 22:21N 29°08' W 014°58'410.5
2018-Jul-05 22:00N 29°05' W 014°59'510.5
2018-Jul-05 21:29N 28°60' W 015°01'510.5
2018-Jul-05 21:00N 28°55' W 015°03'510.6
2018-Jul-05 20:29N 28°50' W 015°05'510.4
2018-Jul-05 20:00N 28°45' W 015°07'510.7
2018-Jul-05 19:30N 28°40' W 015°09'510.9
2018-Jul-05 19:00N 28°35' W 015°11'611.2
2018-Jul-05 18:30N 28°30' W 015°13'611.5
2018-Jul-05 18:00N 28°24' W 015°16'611.3
2018-Jul-05 17:30N 28°19' W 015°18'611.4
2018-Jul-05 17:00N 28°14' W 015°20'611.4
2018-Jul-05 16:30N 28°08' W 015°22'3 5.1
2018-Jul-05 16:00N 28°07' W 015°24'0 0.1
2018-Jul-05 15:30N 28°06' W 015°25'0 0.0
2018-Jul-05 15:00N 28°06' W 015°25'0 0.0
2018-Jul-05 14:30N 28°06' W 015°25'0 0.0
2018-Jul-05 13:30N 28°06' W 015°25'0 0.0
2018-Jul-05 13:00N 28°06' W 015°25'0 0.0
2018-Jul-05 12:30N 28°06' W 015°25'0 0.0
2018-Jul-05 12:00N 28°06' W 015°25'0 0.0
2018-Jul-05 11:15N 28°06' W 015°25'0 0.0
2018-Jul-05 10:51N 28°06' W 015°25'0 0.1
2018-Jul-05 10:30N 28°06' W 015°24'1 2.8
2018-Jul-05 10:00N 28°07' W 015°23'4 7.9
2018-Jul-05 09:30N 28°03' W 015°20'2 3.3
2018-Jul-05 09:00N 28°02' W 015°19'4 8.6
2018-Jul-05 08:30N 27°59' W 015°16'510.7
2018-Jul-05 08:00N 27°53' W 015°16'5 9.7
2018-Jul-05 07:30N 27°49' W 015°17'5 9.3
2018-Jul-05 07:00N 27°45' W 015°20'  
Track history (hours):
 
Tides and Currents Weather Stations Pressure Air Temp Water Temp Dewpoint Dewpoint Depression Visibility Wind Speed Wind Dir Waves Ship Positions

Dominica

Last reported at 2018-Jul-08 10:03 UTC. Time now 2018-Jul-16 22:15 UTC.
Position N 40°18' W 009°11'.
Warning: this ship's position is 8 days out of date.

Length 128 m; draft 5.9 m.

Type: Cargo ship. MMSI: 225803960.

Date/timePositionNaut miles runAvg speedWind from/ knotsBaromVisibWave heightAir tempDewpointWater temp
2018-Jul-08 10:03N 40°18' W 009°11'113.3
2018-Jul-08 10:00N 40°17' W 009°12'713.4
2018-Jul-08 09:30N 40°12' W 009°17'713.4
2018-Jul-08 09:00N 40°07' W 009°23'713.3
2018-Jul-08 08:30N 40°02' W 009°28'713.0
2018-Jul-08 07:59N 39°57' W 009°34'813.1
2018-Jul-08 07:22N 39°50' W 009°41'513.0
2018-Jul-08 07:00N 39°47' W 009°45'812.9
2018-Jul-08 06:25N 39°41' W 009°51'612.8
2018-Jul-08 05:55N 39°36' W 009°57'512.8
2018-Jul-08 05:30N 39°32' W 010°01'712.5
2018-Jul-08 04:59N 39°27' W 010°06'712.6
2018-Jul-08 04:27N 39°22' W 010°12'512.1
2018-Jul-08 04:00N 39°17' W 010°16'612.4
2018-Jul-08 03:29N 39°11' W 010°19'612.5
2018-Jul-08 03:00N 39°06' W 010°22'612.5
2018-Jul-08 02:30N 39°00' W 010°25'612.4
2018-Jul-08 02:00N 38°54' W 010°28'612.3
2018-Jul-08 01:30N 38°49' W 010°31'611.9
2018-Jul-08 00:59N 38°43' W 010°34'712.2
2018-Jul-08 00:23N 38°36' W 010°38'612.4
2018-Jul-07 23:54N 38°31' W 010°41'512.3
2018-Jul-07 23:30N 38°26' W 010°43'612.4
2018-Jul-07 23:00N 38°21' W 010°46'812.3
2018-Jul-07 22:21N 38°13' W 010°50'412.1
2018-Jul-07 22:00N 38°09' W 010°52'612.2
2018-Jul-07 21:31N 38°04' W 010°55'612.4
2018-Jul-07 21:00N 37°58' W 010°58'1912.5
2018-Jul-07 19:28N 37°40' W 011°08'612.8
2018-Jul-07 19:00N 37°35' W 011°11'712.8
2018-Jul-07 18:29N 37°29' W 011°14'47012.3
2018-Jul-06 04:15N 30°08' W 014°32'910.8
2018-Jul-06 03:22N 29°59' W 014°36'410.7
2018-Jul-06 03:00N 29°56' W 014°37'610.8
2018-Jul-06 02:26N 29°50' W 014°40'511.2
2018-Jul-06 02:00N 29°45' W 014°42'611.1
2018-Jul-06 01:30N 29°40' W 014°44'511.0
2018-Jul-06 01:00N 29°35' W 014°46'510.9
2018-Jul-06 00:30N 29°30' W 014°48'610.7
2018-Jul-05 23:59N 29°25' W 014°50'510.7
2018-Jul-05 23:30N 29°20' W 014°53'510.8
2018-Jul-05 23:00N 29°15' W 014°55'710.6
2018-Jul-05 22:21N 29°08' W 014°58'410.5
2018-Jul-05 22:00N 29°05' W 014°59'510.5
2018-Jul-05 21:29N 28°60' W 015°01'510.5
2018-Jul-05 21:00N 28°55' W 015°03'510.6
2018-Jul-05 20:29N 28°50' W 015°05'510.4
2018-Jul-05 20:00N 28°45' W 015°07'510.7
2018-Jul-05 19:30N 28°40' W 015°09'510.9
2018-Jul-05 19:00N 28°35' W 015°11'611.2
2018-Jul-05 18:30N 28°30' W 015°13'611.5
2018-Jul-05 18:00N 28°24' W 015°16'611.3
2018-Jul-05 17:30N 28°19' W 015°18'611.4
2018-Jul-05 17:00N 28°14' W 015°20'611.4
2018-Jul-05 16:30N 28°08' W 015°22'3 5.1
2018-Jul-05 16:00N 28°07' W 015°24'0 0.1
2018-Jul-05 15:30N 28°06' W 015°25'0 0.0
2018-Jul-05 15:00N 28°06' W 015°25'0 0.0
2018-Jul-05 14:30N 28°06' W 015°25'0 0.0
2018-Jul-05 13:30N 28°06' W 015°25'0 0.0
2018-Jul-05 13:00N 28°06' W 015°25'0 0.0
2018-Jul-05 12:30N 28°06' W 015°25'0 0.0
2018-Jul-05 12:00N 28°06' W 015°25'0 0.0
2018-Jul-05 11:15N 28°06' W 015°25'0 0.0
2018-Jul-05 10:51N 28°06' W 015°25'0 0.1
2018-Jul-05 10:30N 28°06' W 015°24'1 2.8
2018-Jul-05 10:00N 28°07' W 015°23'4 7.9
2018-Jul-05 09:30N 28°03' W 015°20'2 3.3
2018-Jul-05 09:00N 28°02' W 015°19'4 8.6
2018-Jul-05 08:30N 27°59' W 015°16'510.7
2018-Jul-05 08:00N 27°53' W 015°16'5 9.7
2018-Jul-05 07:30N 27°49' W 015°17'5 9.3
2018-Jul-05 07:00N 27°45' W 015°20'  

Dump ship's entire track history